Time;durP1;ratioP1;P1;durP2;ratioP2;P2;SDS_P1;SDS_P2;PMS_P1;PMS_P2;Temp;Humidity;BMP_temperature;BMP_pressure;BME280_temperature;BME280_humidity;BME280_pressure;Samples;Min_cycle;Max_cycle;Signal;HPM_P1;HPM_P2
2021/11/22 00:00:29;;;;;;;29.65;15.20;;;;;;;6.44;80.69;99852.84;5010007;28;106081;-75
2021/11/22 00:02:56;;;;;;;27.80;15.68;;;;;;;6.43;80.86;99856.47;5010002;28;106005;-72
2021/11/22 00:05:22;;;;;;;33.17;16.42;;;;;;;6.46;80.63;99850.03;5010169;28;106134;-69
2021/11/22 00:07:47;;;;;;;29.38;15.50;;;;;;;6.48;80.26;99857.81;5009635;28;105976;-69
2021/11/22 00:10:13;;;;;;;29.00;14.52;;;;;;;6.50;80.71;99855.88;5009860;28;105892;-75
2021/11/22 00:12:38;;;;;;;25.17;14.60;;;;;;;6.50;80.24;99864.63;5010936;28;106381;-76
2021/11/22 00:15:06;;;;;;;28.52;14.10;;;;;;;6.52;80.72;99864.47;5010270;28;106223;-69
2021/11/22 00:17:34;;;;;;;29.85;14.57;;;;;;;6.54;81.07;99862.53;5009708;28;106061;-67
2021/11/22 00:20:00;;;;;;;27.48;13.40;;;;;;;6.56;81.28;99860.53;5009559;28;106047;-69
2021/11/22 00:22:27;;;;;;;26.60;13.50;;;;;;;6.57;81.03;99856.91;5009665;28;105949;-69
2021/11/22 00:24:53;;;;;;;27.70;14.40;;;;;;;6.58;80.70;99869.19;5010037;28;106163;-71
2021/11/22 00:27:18;;;;;;;23.50;12.73;;;;;;;6.59;81.17;99860.25;5008926;28;106551;-72
2021/11/22 00:29:44;;;;;;;27.52;13.93;;;;;;;6.61;80.77;99871.50;5009459;28;106072;-70
2021/11/22 00:32:09;;;;;;;26.15;13.35;;;;;;;6.63;80.77;99863.41;5010386;28;105841;-74
2021/11/22 00:34:41;;;;;;;23.83;12.70;;;;;;;6.63;81.07;99872.22;5009983;28;106249;-66
2021/11/22 00:37:24;;;;;;;26.10;13.07;;;;;;;6.64;80.67;99879.13;5009369;28;105888;-68
2021/11/22 00:39:49;;;;;;;25.38;12.55;;;;;;;6.67;81.40;99884.16;5009525;28;105965;-72
2021/11/22 00:42:15;;;;;;;26.27;13.85;;;;;;;6.69;80.87;99884.81;5010280;28;106060;-71
2021/11/22 00:44:41;;;;;;;28.55;12.88;;;;;;;6.69;81.18;99876.88;5008638;28;106127;-69
2021/11/22 00:47:08;;;;;;;22.38;12.45;;;;;;;6.69;81.02;99884.81;5009332;28;106144;-69
2021/11/22 00:49:34;;;;;;;22.60;11.90;;;;;;;6.69;80.59;99889.28;5008896;28;105917;-69
2021/11/22 00:52:00;;;;;;;23.65;12.50;;;;;;;6.70;80.91;99889.13;5010165;28;106004;-70
2021/11/22 00:54:26;;;;;;;24.67;12.35;;;;;;;6.71;80.81;99889.94;5009457;28;106553;-65
2021/11/22 00:56:52;;;;;;;24.95;12.82;;;;;;;6.73;81.22;99896.75;5009154;28;105903;-67
2021/11/22 00:59:17;;;;;;;19.30;11.10;;;;;;;6.75;81.10;99908.03;5008922;28;106051;-65
2021/11/22 01:01:45;;;;;;;22.88;11.60;;;;;;;6.75;80.38;99902.75;5009829;28;105917;-70
2021/11/22 01:04:11;;;;;;;20.73;11.30;;;;;;;6.73;80.59;99904.72;5009147;28;106218;-67
2021/11/22 01:06:37;;;;;;;22.83;11.13;;;;;;;6.73;80.64;99907.34;5009102;28;106568;-64
2021/11/22 01:09:02;;;;;;;19.55;10.45;;;;;;;6.72;80.95;99903.03;5009135;28;105806;-68
2021/11/22 01:11:28;;;;;;;22.55;9.85;;;;;;;6.73;80.60;99906.53;5009826;28;105855;-67
2021/11/22 01:13:53;;;;;;;19.02;10.50;;;;;;;6.72;80.78;99912.81;5009811;28;106111;-68
2021/11/22 01:16:19;;;;;;;20.15;9.65;;;;;;;6.70;80.63;99905.03;5008872;28;105996;-65
2021/11/22 01:18:44;;;;;;;20.15;10.20;;;;;;;6.69;80.56;99908.63;5009615;28;105851;-68
2021/11/22 01:21:10;;;;;;;18.65;10.63;;;;;;;6.68;81.08;99909.63;5008979;28;106377;-68
2021/11/22 01:23:35;;;;;;;20.48;10.35;;;;;;;6.67;81.15;99913.28;5009065;28;106138;-68
2021/11/22 01:26:01;;;;;;;16.90;9.90;;;;;;;6.68;80.83;99916.75;5008550;28;105867;-71
2021/11/22 01:28:27;;;;;;;18.23;10.00;;;;;;;6.64;80.79;99910.91;5009490;28;105948;-71
2021/11/22 01:30:53;;;;;;;20.52;10.48;;;;;;;6.64;80.93;99916.19;5008030;28;105919;-64
2021/11/22 01:33:19;;;;;;;19.10;10.40;;;;;;;6.62;80.99;99915.53;5008751;28;106157;-66
2021/11/22 01:35:45;;;;;;;17.77;10.18;;;;;;;6.63;81.06;99919.00;5008700;28;106519;-71
2021/11/22 01:38:14;;;;;;;17.05;9.68;;;;;;;6.62;80.76;99920.81;5008592;28;105876;-65
2021/11/22 01:40:40;;;;;;;19.02;10.43;;;;;;;6.62;80.91;99930.59;5009703;28;105868;-65
2021/11/22 01:43:06;;;;;;;21.42;10.00;;;;;;;6.63;81.03;99929.59;5007821;28;106363;-69
2021/11/22 01:45:33;;;;;;;18.08;10.35;;;;;;;6.63;80.77;99919.00;5007499;28;106400;-68
2021/11/22 01:47:58;;;;;;;21.30;10.23;;;;;;;6.62;80.43;99926.13;5006982;28;106205;-69
2021/11/22 01:50:25;;;;;;;17.48;9.75;;;;;;;6.61;81.09;99927.09;5008515;28;105969;-70
2021/11/22 01:52:52;;;;;;;19.67;9.43;;;;;;;6.61;81.17;99927.09;5008713;28;106126;-68
2021/11/22 01:55:21;;;;;;;15.57;8.23;;;;;;;6.62;80.86;99934.06;5008525;28;106609;-65
2021/11/22 01:57:49;;;;;;;18.35;9.05;;;;;;;6.61;81.04;99921.81;5008433;28;107093;-66
2021/11/22 02:00:20;;;;;;;17.42;8.65;;;;;;;6.62;81.14;99933.25;5009982;28;106145;-71
2021/11/22 02:02:46;;;;;;;16.92;8.75;;;;;;;6.60;81.35;99931.56;5009158;28;105965;-71
2021/11/22 02:05:12;;;;;;;15.85;8.52;;;;;;;6.62;81.32;99935.88;5008973;28;106231;-65
2021/11/22 02:07:38;;;;;;;14.95;8.60;;;;;;;6.62;80.83;99938.53;5008813;28;105986;-70
2021/11/22 02:10:06;;;;;;;15.05;7.90;;;;;;;6.61;80.49;99940.34;5009317;28;105841;-74
2021/11/22 02:12:32;;;;;;;14.30;7.95;;;;;;;6.59;80.46;99932.53;5008852;28;106221;-66
2021/11/22 02:14:59;;;;;;;17.25;8.02;;;;;;;6.58;80.64;99930.88;5008241;28;105811;-71
2021/11/22 02:17:24;;;;;;;13.45;7.57;;;;;;;6.58;80.93;99927.41;5007758;28;106000;-68
2021/11/22 02:20:00;;;;;;;13.80;7.78;;;;;;;6.58;80.88;99935.34;5008791;28;106063;-67
2021/11/22 02:22:26;;;;;;;17.25;7.85;;;;;;;6.57;81.07;99934.50;5008361;28;106071;-69
2021/11/22 02:24:51;;;;;;;17.23;8.32;;;;;;;6.60;80.70;99941.31;5008315;28;106336;-71
2021/11/22 02:27:16;;;;;;;15.98;8.93;;;;;;;6.59;80.54;99943.13;5008255;28;105933;-69
2021/11/22 02:29:42;;;;;;;14.05;8.00;;;;;;;6.59;80.78;99945.78;5009170;28;105901;-70
2021/11/22 02:32:07;;;;;;;13.18;7.45;;;;;;;6.58;81.02;99953.88;5008158;28;106198;-71
2021/11/22 02:34:33;;;;;;;13.82;7.60;;;;;;;6.58;80.85;99951.22;5008132;28;105987;-69
2021/11/22 02:36:59;;;;;;;16.45;8.38;;;;;;;6.58;80.63;99959.16;5007822;28;106139;-68
2021/11/22 02:39:24;;;;;;;13.82;7.68;;;;;;;6.56;81.11;99956.69;5008553;28;106544;-73
2021/11/22 02:41:50;;;;;;;15.32;8.93;;;;;;;6.57;81.04;99962.78;5007836;28;106398;-67
2021/11/22 02:44:15;;;;;;;14.85;8.60;;;;;;;6.57;80.70;99974.19;5007790;28;105937;-73
2021/11/22 02:46:41;;;;;;;14.43;8.60;;;;;;;6.57;81.07;99976.03;5007738;28;105984;-66
2021/11/22 02:49:06;;;;;;;13.02;8.32;;;;;;;6.56;80.92;99982.28;5008563;28;105977;-71
2021/11/22 02:51:32;;;;;;;13.75;8.57;;;;;;;6.56;80.54;99977.00;5007258;28;106090;-67
2021/11/22 02:54:02;;;;;;;15.70;8.98;;;;;;;6.57;80.66;99973.38;5008036;28;105927;-69
2021/11/22 02:56:33;;;;;;;16.63;8.85;;;;;;;6.56;80.62;99984.94;5007947;28;105862;-68
2021/11/22 02:58:59;;;;;;;18.00;8.48;;;;;;;6.53;80.73;99980.78;5008701;28;105835;-70
2021/11/22 03:01:26;;;;;;;17.05;7.70;;;;;;;6.54;81.25;99984.28;5007443;28;106133;-66
2021/11/22 03:03:54;;;;;;;15.30;7.97;;;;;;;6.53;81.08;99987.88;5007173;28;107031;-64
2021/11/22 03:06:21;;;;;;;12.65;8.13;;;;;;;6.54;80.85;99990.38;5007460;28;106077;-72
2021/11/22 03:08:47;;;;;;;13.98;8.65;;;;;;;6.54;80.76;99994.84;5009496;28;105826;-73
2021/11/22 03:11:14;;;;;;;17.75;8.68;;;;;;;6.54;81.17;99984.28;5011308;28;106247;-71
2021/11/22 03:13:41;;;;;;;15.43;7.68;;;;;;;6.54;81.17;99994.84;5010818;28;106166;-67
2021/11/22 03:16:07;;;;;;;15.73;9.57;;;;;;;6.54;80.58;100000.97;5010889;28;105958;-65
2021/11/22 03:18:33;;;;;;;16.88;8.65;;;;;;;6.54;81.14;100005.44;5011978;28;106098;-73
2021/11/22 03:21:00;;;;;;;20.50;10.43;;;;;;;6.55;80.74;100001.81;5010747;28;107114;-71
2021/11/22 03:23:27;;;;;;;18.65;9.93;;;;;;;6.55;80.60;99997.34;5010330;28;106186;-70
2021/11/22 03:25:52;;;;;;;22.08;9.82;;;;;;;6.57;80.96;100008.59;5010576;28;105777;-67
2021/11/22 03:28:19;;;;;;;22.02;10.05;;;;;;;6.58;80.78;100010.28;5011431;28;105854;-70
2021/11/22 03:30:46;;;;;;;20.30;9.57;;;;;;;6.60;81.19;100010.97;5010449;28;106730;-72
2021/11/22 03:33:12;;;;;;;19.23;10.32;;;;;;;6.63;81.09;100009.84;5010536;28;106414;-64
2021/11/22 03:35:37;;;;;;;21.70;9.70;;;;;;;6.67;81.29;100010.38;5009949;28;105939;-70
2021/11/22 03:38:03;;;;;;;19.98;8.88;;;;;;;6.68;81.01;100009.38;5010869;28;106153;-69
2021/11/22 03:40:29;;;;;;;19.92;8.02;;;;;;;6.69;81.04;100011.88;5010101;28;106150;-71
2021/11/22 03:45:38;;;;;;;13.90;7.00;;;;;;;6.70;80.83;100016.19;5005229;28;105865;-64
2021/11/22 03:48:06;;;;;;;15.00;7.75;;;;;;;6.70;80.79;100016.19;5011151;28;105952;-66
2021/11/22 03:50:32;;;;;;;14.82;7.65;;;;;;;6.67;80.75;100019.16;5010240;28;105766;-68
2021/11/22 03:52:58;;;;;;;14.52;7.20;;;;;;;6.63;80.45;100019.59;5010470;28;105681;-66
2021/11/22 03:55:23;;;;;;;18.35;7.63;;;;;;;6.62;80.88;100029.34;5009943;28;105914;-68
2021/11/22 03:57:49;;;;;;;16.20;8.43;;;;;;;6.62;81.06;100023.25;5010078;28;106033;-69
2021/11/22 04:00:16;;;;;;;15.63;8.82;;;;;;;6.59;81.07;100016.44;5009667;28;106223;-69
2021/11/22 04:02:41;;;;;;;16.33;9.35;;;;;;;6.58;80.74;100020.88;5009524;28;107211;-69
2021/11/22 04:05:08;;;;;;;17.85;8.70;;;;;;;6.56;80.67;100028.13;5010184;28;106267;-66
2021/11/22 04:07:34;;;;;;;18.80;9.10;;;;;;;6.52;80.56;100026.75;5010851;28;106098;-68
2021/11/22 04:10:00;;;;;;;18.55;10.00;;;;;;;6.51;81.36;100029.56;5009865;28;106246;-65
2021/11/22 04:12:26;;;;;;;18.77;9.65;;;;;;;6.50;81.23;100038.47;5009332;28;106031;-69
2021/11/22 04:14:51;;;;;;;20.35;9.88;;;;;;;6.49;81.21;100034.97;5009086;28;106001;-72
2021/11/22 04:17:17;;;;;;;20.40;10.20;;;;;;;6.49;80.88;100040.28;5010183;28;105862;-68
2021/11/22 04:19:44;;;;;;;19.88;11.13;;;;;;;6.48;80.61;100033.34;5009651;28;106143;-65
2021/11/22 04:22:10;;;;;;;19.10;10.85;;;;;;;6.46;80.92;100034.47;5008687;28;106065;-68
2021/11/22 04:24:35;;;;;;;23.88;11.55;;;;;;;6.42;81.27;100033.91;5009110;28;105967;-68
2021/11/22 04:27:02;;;;;;;24.77;12.80;;;;;;;6.40;81.12;100033.25;5009969;28;106451;-65
2021/11/22 04:29:28;;;;;;;27.92;14.60;;;;;;;6.37;81.46;100044.94;5009390;28;106150;-72
2021/11/22 04:31:53;;;;;;;29.85;14.10;;;;;;;6.36;81.00;100045.91;5009220;28;106051;-69
2021/11/22 04:34:19;;;;;;;26.13;12.40;;;;;;;6.34;81.18;100047.91;5008945;28;105993;-66
2021/11/22 04:36:44;;;;;;;21.98;12.30;;;;;;;6.31;80.71;100048.16;5009865;28;106056;-69
2021/11/22 04:39:10;;;;;;;29.30;12.63;;;;;;;6.31;81.06;100045.50;5009166;28;106256;-65
2021/11/22 04:41:35;;;;;;;23.13;12.15;;;;;;;6.32;80.92;100049.00;5008854;28;106167;-68
2021/11/22 04:44:02;;;;;;;23.98;11.50;;;;;;;6.32;80.97;100060.41;5008828;28;105986;-66
2021/11/22 04:46:28;;;;;;;20.55;11.70;;;;;;;6.32;81.19;100064.88;5009859;28;106130;-72
2021/11/22 04:48:54;;;;;;;32.83;14.18;;;;;;;6.33;81.31;100079.75;5009562;28;106187;-66
2021/11/22 04:51:19;;;;;;;22.63;12.02;;;;;;;6.33;81.72;100070.03;5008892;28;105986;-69
2021/11/22 04:53:45;;;;;;;25.58;13.13;;;;;;;6.36;82.02;100085.59;5008936;28;106223;-68
2021/11/22 04:56:10;;;;;;;23.02;11.98;;;;;;;6.37;81.74;100084.63;5009681;28;106025;-68
2021/11/22 04:58:36;;;;;;;22.42;12.95;;;;;;;6.38;81.54;100091.59;5009343;28;106267;-65
2021/11/22 05:01:01;;;;;;;25.52;12.57;;;;;;;6.38;81.63;100090.75;5008697;28;106507;-68
2021/11/22 05:03:27;;;;;;;25.67;12.55;;;;;;;6.37;81.79;100099.66;5008750;28;106177;-71
2021/11/22 05:05:52;;;;;;;25.08;12.50;;;;;;;6.36;81.43;100096.19;5009369;28;105961;-72
2021/11/22 05:08:18;;;;;;;27.98;14.00;;;;;;;6.36;81.45;100096.19;5009367;28;106161;-66
2021/11/22 05:10:44;;;;;;;27.63;13.65;;;;;;;6.37;81.33;100099.66;5008837;28;106066;-66
2021/11/22 05:13:13;;;;;;;23.65;13.10;;;;;;;6.36;81.77;100103.31;5008417;28;106157;-70
2021/11/22 05:48:51;;;;;;;27.92;13.40;;;;;;;5.57;81.82;100160.72;4984759;28;105879;-68
2021/11/22 05:51:18;;;;;;;30.88;14.55;;;;;;;5.58;82.18;100165.06;4984764;28;106039;-68
2021/11/22 05:53:47;;;;;;;28.88;14.30;;;;;;;5.61;82.19;100161.31;4984470;28;106163;-67
2021/11/22 05:56:15;;;;;;;34.92;15.57;;;;;;;5.66;82.23;100170.47;4983871;28;105934;-70
2021/11/22 05:58:40;;;;;;;31.08;14.63;;;;;;;5.71;82.48;100167.41;4981025;28;105790;-69
2021/11/22 06:01:06;;;;;;;31.58;15.85;;;;;;;5.75;82.26;100161.72;4965446;28;105827;-69
2021/11/22 06:03:32;;;;;;;30.65;14.88;;;;;;;5.80;82.22;100165.75;4965068;28;106197;-66
2021/11/22 06:05:58;;;;;;;31.95;15.20;;;;;;;5.82;82.12;100169.06;4964474;28;106122;-65
2021/11/22 06:08:24;;;;;;;31.80;15.02;;;;;;;5.86;82.27;100171.28;4964565;28;106515;-66
2021/11/22 06:10:51;;;;;;;34.13;16.15;;;;;;;5.91;82.34;100166.41;4964855;28;105990;-66
2021/11/22 06:13:18;;;;;;;31.70;15.00;;;;;;;5.94;82.05;100178.53;4964816;28;106282;-66
2021/11/22 06:15:45;;;;;;;32.03;15.73;;;;;;;5.97;82.33;100182.72;4964020;28;106759;-67
2021/11/22 06:18:11;;;;;;;30.13;15.43;;;;;;;6.02;82.37;100186.63;4964160;28;106068;-67
2021/11/22 06:20:37;;;;;;;32.10;14.88;;;;;;;6.06;82.41;100201.22;4964825;28;106038;-66
2021/11/22 06:23:03;;;;;;;31.98;15.32;;;;;;;6.12;82.59;100199.84;4964869;28;105909;-68
2021/11/22 06:25:29;;;;;;;28.17;14.40;;;;;;;6.15;82.67;100204.88;4963798;28;105879;-67
2021/11/22 06:27:54;;;;;;;26.52;14.55;;;;;;;6.21;82.55;100211.41;4964086;28;106062;-67
2021/11/22 06:30:20;;;;;;;27.05;13.32;;;;;;;6.24;82.04;100216.41;4964998;28;105895;-67
2021/11/22 06:32:46;;;;;;;25.48;13.73;;;;;;;6.27;82.17;100226.69;4964650;28;106245;-67
2021/11/22 06:35:12;;;;;;;28.95;13.73;;;;;;;6.32;82.47;100235.03;4963737;28;105766;-66
2021/11/22 06:37:37;;;;;;;31.25;15.60;;;;;;;6.35;82.55;100240.03;4963751;28;105961;-68
2021/11/22 06:40:06;;;;;;;32.58;15.05;;;;;;;6.39;82.54;100240.59;4964702;28;105909;-68
2021/11/22 06:42:32;;;;;;;29.75;14.20;;;;;;;6.42;82.51;100251.75;4963966;28;106153;-67
2021/11/22 06:44:57;;;;;;;29.75;14.75;;;;;;;6.43;82.24;100248.09;4963779;28;106001;-67
2021/11/22 06:47:24;;;;;;;32.15;13.40;;;;;;;6.47;81.82;100253.13;4962717;28;106259;-67
2021/11/22 06:49:50;;;;;;;24.55;13.10;;;;;;;6.49;81.96;100256.47;4964650;28;105801;-69
2021/11/22 06:52:17;;;;;;;30.08;13.13;;;;;;;6.51;82.25;100268.56;4963762;28;106160;-68
2021/11/22 06:54:43;;;;;;;23.30;11.82;;;;;;;6.52;82.01;100262.31;4962913;28;105812;-68
2021/11/22 06:57:09;;;;;;;27.92;12.85;;;;;;;6.52;81.89;100267.59;4963377;28;105967;-68
2021/11/22 06:59:34;;;;;;;25.35;12.80;;;;;;;6.53;81.74;100268.44;4954125;28;106266;-68
2021/11/22 07:02:00;;;;;;;22.95;12.30;;;;;;;6.57;82.01;100270.63;4950590;28;106091;-68
2021/11/22 07:04:26;;;;;;;26.35;13.05;;;;;;;6.57;82.12;100275.13;4950095;28;105976;-67
2021/11/22 07:06:52;;;;;;;24.80;12.15;;;;;;;6.59;81.87;100273.16;4949486;28;106093;-68
2021/11/22 07:09:19;;;;;;;21.27;11.63;;;;;;;6.59;81.90;100273.16;4951279;28;106138;-68
2021/11/22 07:11:46;;;;;;;26.15;12.63;;;;;;;6.59;81.46;100276.66;4950925;28;105977;-68
2021/11/22 07:14:12;;;;;;;24.80;12.15;;;;;;;6.61;81.28;100287.09;4949847;28;108463;-68
2021/11/22 07:16:38;;;;;;;30.10;12.18;;;;;;;6.63;81.66;100285.16;4956533;28;105999;-69
2021/11/22 07:19:04;;;;;;;28.55;12.57;;;;;;;6.64;81.35;100286.78;4970845;28;106254;-66
2021/11/22 07:21:29;;;;;;;24.00;12.18;;;;;;;6.69;81.58;100284.56;4962867;28;106241;-67
2021/11/22 07:23:55;;;;;;;23.20;12.02;;;;;;;6.73;81.75;100291.25;4950328;28;106039;-65
2021/11/22 07:26:21;;;;;;;22.95;12.32;;;;;;;6.78;81.58;100304.06;4950242;28;106077;-67
2021/11/22 07:28:46;;;;;;;26.08;12.63;;;;;;;6.83;81.26;100303.63;4951151;28;105977;-66
2021/11/22 07:31:12;;;;;;;28.50;13.52;;;;;;;6.84;81.63;100300.84;4950490;28;105881;-69
2021/11/22 07:33:37;;;;;;;32.80;13.38;;;;;;;6.87;81.89;100308.47;4949750;28;106449;-67
2021/11/22 07:36:03;;;;;;;25.98;13.35;;;;;;;6.88;81.08;100309.34;4950178;28;105925;-68
2021/11/22 07:38:28;;;;;;;25.60;13.95;;;;;;;6.89;80.92;100305.69;4951289;28;105837;-68
2021/11/22 07:40:55;;;;;;;24.13;11.48;;;;;;;6.93;81.45;100307.94;4950747;28;106193;-65
2021/11/22 07:43:20;;;;;;;25.90;12.75;;;;;;;7.00;81.90;100313.47;4950096;28;106000;-68
2021/11/22 07:45:46;;;;;;;22.23;13.55;;;;;;;7.06;81.60;100314.72;4950251;28;105878;-69
2021/11/22 07:48:13;;;;;;;25.92;12.77;;;;;;;7.07;81.44;100314.56;4950409;28;105941;-69
2021/11/22 07:50:39;;;;;;;25.42;11.45;;;;;;;7.09;81.64;100323.22;4950421;28;105798;-67
2021/11/22 07:53:05;;;;;;;26.70;12.43;;;;;;;7.09;80.83;100319.72;4949839;28;105972;-66
2021/11/22 07:55:30;;;;;;;28.85;13.00;;;;;;;7.06;81.04;100335.91;4949847;28;106333;-70
2021/11/22 07:57:56;;;;;;;23.35;12.57;;;;;;;7.04;80.97;100321.97;4950100;28;106061;-70
2021/11/22 08:00:24;;;;;;;29.98;14.40;;;;;;;7.01;81.01;100338.16;4949702;28;106382;-70
2021/11/22 08:02:50;;;;;;;27.50;13.02;;;;;;;6.94;81.10;100336.09;4947628;28;106182;-71
2021/11/22 08:05:16;;;;;;;25.42;12.45;;;;;;;6.89;80.90;100342.75;4949588;28;106940;-70
2021/11/22 08:07:42;;;;;;;28.10;14.13;;;;;;;6.85;80.97;100342.22;4950071;28;105881;-67
2021/11/22 08:10:25;;;;;;;30.23;15.07;;;;;;;6.81;81.13;100340.84;4949220;28;106142;-70
2021/11/22 08:12:54;;;;;;;24.73;13.00;;;;;;;6.76;80.95;100346.53;4949399;28;105928;-69
2021/11/22 08:15:20;;;;;;;25.63;13.07;;;;;;;6.75;80.72;100342.25;4948984;28;106023;-70
2021/11/22 08:17:46;;;;;;;25.20;12.68;;;;;;;6.75;81.13;100352.84;4949568;28;105845;-70
2021/11/22 08:20:17;;;;;;;23.40;12.75;;;;;;;6.75;80.53;100350.19;4949224;28;107178;-71
2021/11/22 08:22:45;;;;;;;22.67;12.52;;;;;;;6.73;80.69;100360.06;4949467;28;105749;-70
2021/11/22 08:25:11;;;;;;;25.42;12.60;;;;;;;6.69;80.37;100358.69;4949330;28;105850;-71
2021/11/22 08:27:38;;;;;;;27.35;19.80;;;;;;;6.67;81.08;100360.66;4949382;28;106229;-70
2021/11/22 08:30:13;;;;;;;29.45;15.35;;;;;;;6.65;80.33;100365.25;4948955;28;106187;-74
2021/11/22 08:32:41;;;;;;;21.80;11.10;;;;;;;6.63;80.82;100369.84;4949344;28;106461;-76
2021/11/22 08:35:07;;;;;;;19.45;10.70;;;;;;;6.61;80.81;100377.09;4948610;28;106064;-74
2021/11/22 08:37:34;;;;;;;15.75;10.23;;;;;;;6.59;81.00;100379.06;4948848;28;106217;-77
2021/11/22 08:39:59;;;;;;;16.88;8.95;;;;;;;6.59;80.34;100379.06;4949179;28;106149;-72
2021/11/22 08:42:25;;;;;;;13.50;8.43;;;;;;;6.60;80.60;100378.91;4948111;28;106368;-75
2021/11/22 08:44:52;;;;;;;17.95;9.50;;;;;;;6.65;81.08;100377.66;4950611;28;105904;-73
2021/11/22 08:47:17;;;;;;;16.23;8.52;;;;;;;6.70;80.52;100381.56;4949716;28;106470;-73
2021/11/22 08:49:43;;;;;;;14.48;8.23;;;;;;;6.75;80.95;100384.63;4950079;28;105912;-75
2021/11/22 08:52:10;;;;;;;15.05;8.90;;;;;;;6.84;80.56;100382.09;4949284;28;107114;-73
2021/11/22 08:54:36;;;;;;;16.00;8.95;;;;;;;6.94;80.82;100404.09;4949430;28;106242;-74
2021/11/22 08:57:02;;;;;;;17.55;8.35;;;;;;;7.04;80.74;100404.06;4950227;28;105885;-74
2021/11/22 08:59:27;;;;;;;18.13;9.77;;;;;;;7.15;81.07;100408.38;4949982;28;105750;-74
2021/11/22 09:01:53;;;;;;;13.18;7.18;;;;;;;7.19;80.54;100410.63;4949390;28;105835;-75
2021/11/22 09:04:18;;;;;;;13.05;6.80;;;;;;;7.26;80.36;100414.38;4949768;28;105799;-78
2021/11/22 09:06:43;;;;;;;16.23;8.30;;;;;;;7.35;80.29;100423.25;4950634;28;105966;-77
2021/11/22 09:09:10;;;;;;;13.77;7.32;;;;;;;7.42;80.35;100424.38;4948003;28;106135;-76
2021/11/22 09:11:37;;;;;;;19.20;9.52;;;;;;;7.50;80.58;100420.16;4949011;28;105926;-73
2021/11/22 09:14:03;;;;;;;17.38;9.98;;;;;;;7.58;80.39;100421.09;4948944;28;106023;-76
2021/11/22 09:16:29;;;;;;;19.08;10.25;;;;;;;7.68;80.29;100423.72;4949088;28;106107;-75
2021/11/22 09:18:59;;;;;;;19.52;11.95;;;;;;;7.78;80.74;100427.16;4948685;28;106245;-71
2021/11/22 09:21:26;;;;;;;20.45;11.55;;;;;;;7.88;80.11;100429.75;4947645;28;106928;-73
2021/11/22 09:23:52;;;;;;;21.05;12.00;;;;;;;8.05;80.09;100433.47;4947997;28;107039;-74
2021/11/22 09:26:18;;;;;;;17.20;10.60;;;;;;;8.22;80.47;100436.31;4949460;28;106003;-76
2021/11/22 09:28:45;;;;;;;19.75;11.80;;;;;;;8.38;80.24;100431.19;4948773;28;105969;-69
2021/11/22 09:31:11;;;;;;;19.83;11.10;;;;;;;8.46;79.63;100431.28;4946988;28;106342;-75
2021/11/22 09:33:37;;;;;;;19.02;10.90;;;;;;;8.41;79.61;100420.25;4948922;28;105876;-76
2021/11/22 09:36:02;;;;;;;21.05;11.85;;;;;;;8.42;79.13;100432.53;4945643;28;106327;-76
2021/11/22 09:38:28;;;;;;;21.10;12.52;;;;;;;8.47;79.14;100434.78;4946841;28;106159;-76
2021/11/22 09:40:54;;;;;;;18.73;11.38;;;;;;;8.43;79.04;100433.38;4946011;28;106898;-73
2021/11/22 09:43:20;;;;;;;20.27;11.95;;;;;;;8.32;78.47;100437.06;4946220;28;106095;-76
2021/11/22 09:45:47;;;;;;;23.02;11.95;;;;;;;8.20;78.67;100447.09;4947295;28;106304;-73
2021/11/22 09:48:14;;;;;;;18.88;12.43;;;;;;;8.10;78.28;100454.25;4948300;28;105968;-73
2021/11/22 09:50:39;;;;;;;19.98;12.15;;;;;;;8.03;78.97;100451.34;4948284;28;106119;-74
2021/11/22 09:53:06;;;;;;;18.00;10.13;;;;;;;7.97;78.84;100450.13;4948342;28;106079;-76
2021/11/22 09:55:33;;;;;;;16.77;9.77;;;;;;;7.93;78.79;100453.22;4949325;28;105975;-72
2021/11/22 09:58:01;;;;;;;18.77;10.07;;;;;;;7.91;79.09;100455.16;4948641;28;106166;-77
2021/11/22 10:00:37;;;;;;;14.45;8.50;;;;;;;7.89;78.79;100451.84;4948249;28;105878;-71
2021/11/22 10:03:05;;;;;;;17.55;9.63;;;;;;;7.83;78.66;100458.53;4948080;28;106155;-74
2021/11/22 10:05:35;;;;;;;15.70;9.50;;;;;;;7.73;78.31;100452.47;4947380;28;106045;-70
2021/11/22 10:08:21;;;;;;;15.38;8.50;;;;;;;7.63;78.60;100453.31;4947470;28;106145;-70
2021/11/22 10:10:51;;;;;;;19.65;8.88;;;;;;;7.61;78.78;100449.13;4946136;28;106819;-70
2021/11/22 10:13:32;;;;;;;12.10;8.07;;;;;;;7.63;78.44;100453.31;4945466;28;106379;-68
2021/11/22 10:16:00;;;;;;;16.58;9.43;;;;;;;7.64;78.36;100451.53;4946571;28;105908;-67
2021/11/22 10:18:31;;;;;;;15.95;8.38;;;;;;;7.63;78.31;100458.63;4946043;28;106131;-67
2021/11/22 10:21:04;;;;;;;13.90;8.23;;;;;;;7.61;79.00;100454.44;4945842;28;105940;-69
2021/11/22 10:23:30;;;;;;;15.77;9.18;;;;;;;7.58;79.09;100460.03;4944236;28;106334;-68
2021/11/22 10:25:57;;;;;;;16.35;9.02;;;;;;;7.51;78.48;100453.66;4946596;28;106083;-67
2021/11/22 10:28:26;;;;;;;16.85;8.57;;;;;;;7.44;78.51;100458.69;4945810;28;106505;-68
2021/11/22 10:30:56;;;;;;;15.85;9.45;;;;;;;7.36;78.79;100456.75;4946068;28;106964;-68
2021/11/22 10:33:31;;;;;;;18.17;9.15;;;;;;;7.29;79.04;100460.94;4946948;28;106293;-75
2021/11/22 10:36:03;;;;;;;18.50;10.15;;;;;;;7.24;78.94;100463.19;4951821;28;106010;-72
2021/11/22 10:38:38;;;;;;;19.48;10.60;;;;;;;7.17;78.38;100468.19;4950222;28;106346;-75
2021/11/22 10:41:12;;;;;;;19.02;10.55;;;;;;;7.14;78.44;100470.31;4950682;28;105929;-72
2021/11/22 10:43:51;;;;;;;21.10;11.48;;;;;;;7.06;78.34;100466.53;4951131;28;106007;-72
2021/11/22 10:46:44;;;;;;;20.60;11.52;;;;;;;7.03;78.61;100472.13;4951828;28;105907;-66
2021/11/22 10:49:16;;;;;;;18.75;10.13;;;;;;;7.04;78.44;100468.50;4949735;28;105996;-67
2021/11/22 10:51:48;;;;;;;20.05;11.18;;;;;;;7.06;78.80;100469.19;4950102;28;106585;-72
2021/11/22 10:54:17;;;;;;;20.80;11.52;;;;;;;7.11;78.99;100472.25;4951043;28;106094;-75
2021/11/22 10:56:48;;;;;;;17.33;10.65;;;;;;;7.15;79.30;100474.63;4950998;28;106012;-70
2021/11/22 10:59:14;;;;;;;18.55;9.25;;;;;;;7.17;79.06;100478.81;4950774;28;105908;-69
2021/11/22 11:01:48;;;;;;;17.52;11.75;;;;;;;7.24;79.43;100481.72;4950529;28;106728;-68
2021/11/22 11:04:16;;;;;;;14.85;9.52;;;;;;;7.31;78.98;100480.16;4950669;28;106260;-71
2021/11/22 11:07:01;;;;;;;15.48;9.35;;;;;;;7.42;78.98;100488.00;4951467;28;106683;-69
2021/11/22 11:09:34;;;;;;;16.80;10.48;;;;;;;7.50;78.73;100481.13;4951197;28;106270;-72
2021/11/22 11:12:02;;;;;;;19.80;10.45;;;;;;;7.55;78.83;100492.16;4949784;28;106017;-73
2021/11/22 11:14:30;;;;;;;21.10;10.18;;;;;;;7.55;78.43;100492.16;4950938;28;105955;-74
2021/11/22 11:17:08;;;;;;;18.52;9.85;;;;;;;7.53;78.51;100494.94;4951642;28;105936;-74
2021/11/22 11:19:36;;;;;;;19.17;10.77;;;;;;;7.51;77.86;100488.94;4951001;28;105974;-74
2021/11/22 11:22:02;;;;;;;17.88;11.35;;;;;;;7.49;77.90;100500.66;4960298;28;107323;-77
2021/11/22 11:24:28;;;;;;;19.45;10.90;;;;;;;7.44;78.41;100501.91;4970193;28;106030;-77
2021/11/22 11:26:54;;;;;;;19.70;11.35;;;;;;;7.36;77.55;100491.19;4970909;28;105873;-70
2021/11/22 11:29:19;;;;;;;23.23;12.32;;;;;;;7.28;78.41;100488.41;4969939;28;106185;-68
2021/11/22 11:31:45;;;;;;;27.40;13.60;;;;;;;7.26;78.49;100493.84;4969831;28;106662;-69
2021/11/22 11:34:13;;;;;;;21.02;13.00;;;;;;;7.28;78.74;100497.22;4969507;28;105804;-72
2021/11/22 11:37:03;;;;;;;24.05;13.63;;;;;;;7.28;77.85;100499.88;4970370;28;106233;-75
2021/11/22 11:39:50;;;;;;;20.50;12.70;;;;;;;7.29;78.45;100498.03;4969944;28;105911;-73
2021/11/22 11:42:46;;;;;;;22.00;12.68;;;;;;;7.35;78.48;100501.94;4969591;28;105851;-74
2021/11/22 11:45:30;;;;;;;24.48;12.95;;;;;;;7.36;78.41;100496.50;4969422;28;106007;-73
2021/11/22 11:48:26;;;;;;;21.25;12.98;;;;;;;7.34;77.84;100500.25;4969598;28;106598;-71
2021/11/22 11:51:03;;;;;;;24.52;12.98;;;;;;;7.31;78.11;100504.03;4969347;28;106122;-74